Saltar para o conteúdo principal

Santa Catarina (Aeródromo)

ID 1200521 · 32.6969, -16.7761 mapa

Última leitura · 2026-05-09 19:00 (Europe/Lisbon)

Temperatura
19.0 °C
Humidade
63 %
Pressão
1,013.5 hPa
Precipitação
0.0 mm
Radiação
568 W/m²
Velocidade do vento
Direcção do vento
Sem vento

Histórico de 24 horas

Hora (Europe/Lisbon) Temperatura Humidade Pressão Chuva Vento Direcção
2026-05-09 19:00 19.0 °C 63 % 1,013.5 0.0 mm
2026-05-09 18:00 18.7 °C 66 % 1,013.4 0.0 mm
2026-05-09 17:00 19.4 °C 62 % 1,013.0 0.0 mm
2026-05-09 16:00 19.3 °C 60 % 1,012.9 0.0 mm
2026-05-09 15:00 19.6 °C 61 % 1,012.8 0.0 mm
2026-05-09 14:00 18.9 °C 63 % 1,012.8 0.0 mm
2026-05-09 13:00 18.9 °C 63 % 1,013.0 0.0 mm
2026-05-09 12:00 18.9 °C 64 % 1,012.8 0.0 mm
2026-05-09 11:00 18.8 °C 65 % 1,012.6 0.0 mm
2026-05-09 10:00 18.1 °C 66 % 1,012.1 0.0 mm
2026-05-09 09:00 17.1 °C 71 % 1,011.6 0.0 mm
2026-05-09 08:00 15.1 °C 79 % 1,010.9 0.0 mm
2026-05-09 07:00 15.3 °C 77 % 1,010.4 0.0 mm
2026-05-09 06:00 15.6 °C 74 % 1,010.2 0.0 mm
2026-05-09 05:00 16.3 °C 71 % 1,010.2 0.0 mm
2026-05-09 04:00 15.8 °C 71 % 1,010.2 0.0 mm
2026-05-09 03:00 16.0 °C 68 % 1,010.3 0.0 mm
2026-05-09 02:00 16.5 °C 65 % 1,010.2 0.0 mm
2026-05-09 01:00 16.7 °C 65 % 1,010.4 0.0 mm
2026-05-09 00:00 17.4 °C 61 % 1,010.0 0.0 mm
2026-05-08 23:00 17.1 °C 65 % 1,009.5 0.0 mm
2026-05-08 22:00 17.4 °C 66 % 1,008.6 0.0 mm
2026-05-08 21:00 17.9 °C 66 % 1,007.8 0.0 mm
2026-05-08 20:00 18.1 °C 65 % 1,007.2 0.0 mm